Time;durP1;ratioP1;P1;durP2;ratioP2;P2;SDS_P1;SDS_P2;PMS_P1;PMS_P2;Temp;Humidity;BMP_temperature;BMP_pressure;BME280_temperature;BME280_humidity;BME280_pressure;Samples;Min_cycle;Max_cycle;Signal;HPM_P1;HPM_P2
2023/02/21 02:15:35;;;;;;;32.50;22.17;;;8.10;99.90;;;;;;5084832;28;20194;-80
2023/02/21 02:18:18;;;;;;;31.77;21.33;;;8.10;99.90;;;;;;5088628;28;20205;-79
2023/02/21 02:21:07;;;;;;;31.50;20.50;;;8.20;99.90;;;;;;5093614;28;20212;-80
2023/02/21 02:23:57;;;;;;;29.43;19.10;;;8.10;99.90;;;;;;5085120;28;20209;-79
2023/02/21 02:26:57;;;;;;;31.27;18.87;;;8.20;99.90;;;;;;5091834;28;20220;-80
2023/02/21 02:29:52;;;;;;;26.57;17.90;;;8.10;99.90;;;;;;5073610;28;20220;-81
2023/02/21 02:32:54;;;;;;;28.27;18.37;;;8.00;99.90;;;;;;5093848;28;20201;-79
2023/02/21 02:35:31;;;;;;;28.07;18.20;;;7.90;99.90;;;;;;5067562;28;20211;-80
2023/02/21 02:38:02;;;;;;;25.67;17.50;;;7.90;99.90;;;;;;5093516;28;20200;-79
2023/02/21 02:40:35;;;;;;;28.97;18.20;;;7.80;99.90;;;;;;5090498;28;20672;-80
2023/02/21 02:43:12;;;;;;;28.57;18.63;;;7.80;99.90;;;;;;5073328;28;20202;-80
2023/02/21 02:45:43;;;;;;;27.17;18.57;;;7.80;99.90;;;;;;5087812;28;20213;-79
2023/02/21 02:48:23;;;;;;;31.97;18.40;;;7.80;99.90;;;;;;5093510;28;20707;-80
2023/02/21 02:50:56;;;;;;;26.07;16.73;;;7.80;99.90;;;;;;5093131;28;20201;-79
2023/02/21 02:53:27;;;;;;;31.57;17.63;;;7.70;99.90;;;;;;5091887;28;20205;-78
2023/02/21 02:55:57;;;;;;;26.07;16.63;;;7.60;99.90;;;;;;5092021;28;20199;-79
2023/02/21 02:58:28;;;;;;;27.00;17.03;;;7.60;99.90;;;;;;5094521;28;20205;-78
2023/02/21 03:01:17;;;;;;;34.50;18.17;;;7.60;99.90;;;;;;5080484;28;20197;-79
2023/02/21 03:04:08;;;;;;;32.17;18.17;;;7.60;99.90;;;;;;5093203;28;20207;-80
2023/02/21 03:06:45;;;;;;;30.93;18.43;;;7.60;99.90;;;;;;5091908;28;20217;-79
2023/02/21 03:09:17;;;;;;;29.10;16.73;;;7.70;99.90;;;;;;5081674;28;20228;-80
2023/02/21 03:11:51;;;;;;;28.93;17.10;;;7.70;99.90;;;;;;5089772;28;20189;-79
2023/02/21 03:14:22;;;;;;;26.13;16.07;;;7.70;99.90;;;;;;5072735;28;20198;-80
2023/02/21 03:16:54;;;;;;;25.00;15.23;;;7.80;99.90;;;;;;5090968;28;20545;-80
2023/02/21 03:19:26;;;;;;;24.57;16.17;;;7.90;99.90;;;;;;5093220;28;20227;-79
2023/02/21 03:21:59;;;;;;;25.73;15.87;;;7.80;99.90;;;;;;5079095;28;20668;-80
2023/02/21 03:24:27;;;;;;;27.90;16.57;;;7.70;99.90;;;;;;5079635;28;20212;-80
2023/02/21 03:27:00;;;;;;;25.13;14.80;;;7.70;99.90;;;;;;5092980;28;20210;-80
2023/02/21 03:29:27;;;;;;;23.30;14.57;;;7.70;99.90;;;;;;5092868;28;20201;-78
2023/02/21 03:31:58;;;;;;;22.83;14.43;;;7.70;99.90;;;;;;5092340;28;20201;-80
2023/02/21 03:34:28;;;;;;;26.63;15.00;;;7.60;99.90;;;;;;5093067;28;21442;-80
2023/02/21 03:36:56;;;;;;;25.77;14.83;;;7.70;99.90;;;;;;5095310;28;20197;-78
2023/02/21 03:39:23;;;;;;;25.40;14.27;;;7.70;99.90;;;;;;5097501;28;20205;-80
2023/02/21 03:41:50;;;;;;;22.23;14.30;;;7.80;99.90;;;;;;5096114;28;20209;-80
2023/02/21 03:44:17;;;;;;;24.83;14.87;;;7.70;99.90;;;;;;5092510;28;20213;-79
2023/02/21 03:46:44;;;;;;;22.40;13.77;;;7.80;99.90;;;;;;5086745;28;20213;-80
2023/02/21 03:49:11;;;;;;;23.73;14.47;;;7.90;99.90;;;;;;5096547;28;20225;-79
2023/02/21 03:51:38;;;;;;;27.73;15.27;;;7.90;99.90;;;;;;5096134;28;20232;-81
2023/02/21 03:54:09;;;;;;;24.00;14.77;;;8.00;99.90;;;;;;5096068;28;20671;-79
2023/02/21 03:56:35;;;;;;;21.83;13.93;;;8.10;99.90;;;;;;5095865;28;20572;-80
2023/02/21 03:59:02;;;;;;;26.03;14.53;;;8.00;99.90;;;;;;5096480;28;20209;-79
2023/02/21 04:01:29;;;;;;;26.73;15.53;;;8.00;99.90;;;;;;5096172;28;20216;-80
2023/02/21 04:03:56;;;;;;;25.60;14.27;;;8.10;99.90;;;;;;5095542;28;20198;-79
2023/02/21 04:06:23;;;;;;;27.93;14.67;;;8.10;99.90;;;;;;5095456;28;20228;-78
2023/02/21 04:08:52;;;;;;;31.92;20.48;;;8.10;99.90;;;;;;5104708;28;20426;-84
2023/02/21 04:11:21;;;;;;;23.33;15.50;;;8.10;99.90;;;;;;5107455;28;20622;-84
2023/02/21 04:13:49;;;;;;;23.13;14.93;;;8.00;99.90;;;;;;5092468;28;20215;-81
2023/02/21 04:16:16;;;;;;;22.97;13.57;;;8.00;99.90;;;;;;5105609;28;20201;-85
2023/02/21 04:18:43;;;;;;;16.57;12.50;;;8.10;99.90;;;;;;5089067;28;20214;-85
2023/02/21 04:21:15;;;;;;;23.23;13.53;;;8.10;99.90;;;;;;5099539;28;20211;-87
2023/02/21 04:23:43;;;;;;;20.13;13.17;;;8.00;99.90;;;;;;5095864;28;20551;-84
2023/02/21 04:26:11;;;;;;;22.27;13.47;;;7.90;99.90;;;;;;5094954;28;20201;-81
2023/02/21 04:28:40;;;;;;;21.30;13.07;;;8.00;99.90;;;;;;5082801;28;20221;-80
2023/02/21 04:31:07;;;;;;;24.63;13.30;;;8.00;99.90;;;;;;5095170;28;20205;-79
2023/02/21 04:33:34;;;;;;;22.63;12.73;;;8.00;99.90;;;;;;5087665;28;20194;-78
2023/02/21 04:36:00;;;;;;;28.10;16.98;;;8.00;99.90;;;;;;5090378;28;20441;-79
2023/02/21 04:38:28;;;;;;;22.67;13.53;;;8.10;99.90;;;;;;5095443;28;20204;-80
2023/02/21 04:40:55;;;;;;;20.27;12.77;;;8.10;99.90;;;;;;5081959;28;20220;-82
2023/02/21 04:43:22;;;;;;;26.07;13.97;;;8.10;99.90;;;;;;5095213;28;20296;-79
2023/02/21 04:45:50;;;;;;;23.93;13.23;;;8.00;99.90;;;;;;5095501;28;20208;-79
2023/02/21 04:48:17;;;;;;;22.73;13.53;;;8.00;99.90;;;;;;5094780;28;20225;-79
2023/02/21 04:50:44;;;;;;;21.30;12.67;;;7.90;99.90;;;;;;5091283;28;20266;-80
2023/02/21 04:53:11;;;;;;;26.20;13.30;;;8.00;99.90;;;;;;5081933;28;20201;-80
2023/02/21 04:55:39;;;;;;;22.47;12.93;;;7.90;99.90;;;;;;5085474;28;20205;-78
2023/02/21 04:58:07;;;;;;;25.80;13.60;;;7.80;99.90;;;;;;5094570;28;20212;-79
2023/02/21 05:00:34;;;;;;;21.00;12.47;;;7.90;99.90;;;;;;5094771;28;20208;-79
2023/02/21 05:03:02;;;;;;;20.33;12.27;;;7.90;99.90;;;;;;5080957;28;20193;-80
2023/02/21 05:05:29;;;;;;;28.92;17.73;;;7.90;99.90;;;;;;5094201;28;20786;-79
2023/02/21 05:07:56;;;;;;;25.10;14.07;;;8.00;99.90;;;;;;5094685;28;20209;-80
2023/02/21 05:10:24;;;;;;;20.83;11.90;;;8.00;99.90;;;;;;5094969;28;20209;-79
2023/02/21 05:12:53;;;;;;;20.27;12.57;;;8.00;99.90;;;;;;5095202;28;20648;-82
2023/02/21 05:15:20;;;;;;;26.77;13.87;;;8.00;99.90;;;;;;5095610;28;20216;-80
2023/02/21 05:17:48;;;;;;;22.40;13.30;;;7.90;99.90;;;;;;5094964;28;20211;-79
2023/02/21 05:20:16;;;;;;;22.07;13.07;;;8.00;99.90;;;;;;5095703;28;20210;-79
2023/02/21 05:22:44;;;;;;;24.37;13.53;;;8.00;99.90;;;;;;5094399;28;20217;-79
2023/02/21 05:25:16;;;;;;;24.10;13.37;;;8.00;99.90;;;;;;5094861;28;20200;-80
2023/02/21 05:27:44;;;;;;;20.60;12.27;;;8.00;99.90;;;;;;5087117;28;20266;-79
2023/02/21 05:30:12;;;;;;;19.43;12.27;;;8.00;99.90;;;;;;5079974;28;20284;-79
2023/02/21 05:32:39;;;;;;;19.10;12.07;;;8.00;99.90;;;;;;5094755;28;20212;-79
2023/02/21 05:35:07;;;;;;;16.57;10.27;;;7.70;99.90;;;;;;5095260;28;20208;-82
2023/02/21 05:37:37;;;;;;;18.37;11.07;;;7.80;99.90;;;;;;5093918;28;21056;-81
2023/02/21 05:40:05;;;;;;;16.20;10.63;;;7.80;99.90;;;;;;5094028;28;20201;-82
2023/02/21 05:42:33;;;;;;;16.57;10.30;;;7.80;99.90;;;;;;5082850;28;20190;-81
2023/02/21 05:45:01;;;;;;;15.60;10.20;;;7.70;99.90;;;;;;5092326;28;20212;-80
2023/02/21 05:47:28;;;;;;;14.83;9.93;;;7.60;99.90;;;;;;5094049;28;20200;-80
2023/02/21 05:49:55;;;;;;;16.27;9.40;;;7.60;99.90;;;;;;5093788;28;20225;-83
2023/02/21 05:52:21;;;;;;;16.00;9.17;;;7.80;99.90;;;;;;5093586;28;20761;-81
2023/02/21 05:54:50;;;;;;;16.03;9.20;;;7.80;99.90;;;;;;5093609;28;20193;-80
2023/02/21 05:57:17;;;;;;;15.90;8.50;;;7.90;99.90;;;;;;5093755;28;20194;-80
2023/02/21 05:59:46;;;;;;;12.50;8.10;;;7.70;99.90;;;;;;5086802;28;20198;-81
2023/02/21 06:02:13;;;;;;;11.83;8.10;;;7.90;99.90;;;;;;5074571;28;20259;-80
2023/02/21 06:04:41;;;;;;;12.00;8.13;;;7.80;99.90;;;;;;5093212;28;20758;-80
2023/02/21 06:07:09;;;;;;;11.60;7.60;;;7.80;99.90;;;;;;5090735;28;20201;-80
2023/02/21 06:09:36;;;;;;;14.43;8.60;;;7.80;99.90;;;;;;5090329;28;20220;-81
2023/02/21 06:12:06;;;;;;;14.83;10.00;;;7.70;99.90;;;;;;5084803;28;20213;-79
2023/02/21 06:14:33;;;;;;;17.77;10.37;;;7.70;99.90;;;;;;5089225;28;20213;-80
2023/02/21 06:17:01;;;;;;;17.37;10.77;;;7.70;99.90;;;;;;5093529;28;20231;-79
2023/02/21 06:19:28;;;;;;;18.93;11.30;;;7.70;99.90;;;;;;5094122;28;20538;-79
2023/02/21 06:21:55;;;;;;;16.97;10.57;;;7.70;99.90;;;;;;5093436;28;20304;-80
2023/02/21 06:24:23;;;;;;;17.27;10.87;;;7.80;99.90;;;;;;5089850;28;20200;-81
2023/02/21 06:26:54;;;;;;;16.90;10.80;;;7.80;99.90;;;;;;5085049;28;20212;-80
2023/02/21 06:29:24;;;;;;;17.53;10.83;;;7.80;99.90;;;;;;5093638;28;20216;-79
2023/02/21 06:31:56;;;;;;;14.73;11.00;;;7.80;99.90;;;;;;5092765;28;20208;-80
2023/02/21 06:34:25;;;;;;;15.30;9.50;;;7.80;99.90;;;;;;5079984;28;20665;-80
2023/02/21 06:36:54;;;;;;;15.17;10.40;;;7.70;99.90;;;;;;5093146;28;20209;-81
2023/02/21 06:39:21;;;;;;;16.00;9.67;;;7.70;99.90;;;;;;5092520;28;20201;-80
2023/02/21 06:41:50;;;;;;;12.47;8.77;;;7.70;99.90;;;;;;5090020;28;20206;-83
2023/02/21 06:44:19;;;;;;;13.83;9.07;;;7.70;99.90;;;;;;5086284;28;20209;-80
2023/02/21 06:46:49;;;;;;;15.23;8.43;;;7.80;99.90;;;;;;5093636;28;20644;-78
2023/02/21 06:49:18;;;;;;;11.70;8.10;;;7.70;99.90;;;;;;5092900;28;20282;-80
2023/02/21 06:51:46;;;;;;;12.63;8.70;;;7.70;99.90;;;;;;5092483;28;20205;-78
2023/02/21 06:54:15;;;;;;;10.70;7.90;;;7.80;99.90;;;;;;5093304;28;20219;-79
2023/02/21 06:56:43;;;;;;;13.10;8.80;;;7.60;99.90;;;;;;5076009;28;20730;-79
2023/02/21 06:59:10;;;;;;;12.73;8.80;;;7.50;99.90;;;;;;5092641;28;20193;-79
2023/02/21 07:01:37;;;;;;;13.73;11.82;;;7.60;99.90;;;;;;5091269;28;20423;-79
2023/02/21 07:04:06;;;;;;;12.03;9.37;;;7.80;99.90;;;;;;5093201;28;20208;-82
2023/02/21 07:06:34;;;;;;;16.80;10.13;;;7.80;99.90;;;;;;5091676;28;20322;-80
2023/02/21 07:09:01;;;;;;;12.83;9.47;;;7.80;99.90;;;;;;5090927;28;20231;-79
2023/02/21 07:11:31;;;;;;;12.80;8.83;;;7.80;99.90;;;;;;5095184;28;20205;-79
2023/02/21 07:13:58;;;;;;;14.73;9.80;;;7.80;99.90;;;;;;5096520;28;20565;-82
2023/02/21 07:16:27;;;;;;;13.33;9.20;;;7.70;99.90;;;;;;5090824;28;20701;-81
2023/02/21 07:18:55;;;;;;;13.47;9.23;;;7.80;99.90;;;;;;5096925;28;20208;-82
2023/02/21 07:21:25;;;;;;;11.67;8.53;;;7.70;99.90;;;;;;5095975;28;20220;-81
2023/02/21 07:23:52;;;;;;;16.77;9.50;;;7.80;99.90;;;;;;5084512;28;20198;-79
2023/02/21 07:26:18;;;;;;;13.73;8.87;;;7.70;99.90;;;;;;5094694;28;20208;-85
2023/02/21 07:28:47;;;;;;;16.73;9.67;;;7.70;99.90;;;;;;5096012;28;20224;-79
2023/02/21 07:31:14;;;;;;;14.77;9.60;;;7.60;99.90;;;;;;5095979;28;20216;-78
2023/02/21 07:33:42;;;;;;;12.53;9.33;;;7.60;99.90;;;;;;5096516;28;20201;-81
2023/02/21 07:36:10;;;;;;;13.77;9.33;;;7.50;99.90;;;;;;5096016;28;20197;-78
2023/02/21 07:38:38;;;;;;;13.77;9.57;;;7.40;99.90;;;;;;5096814;28;20257;-80
2023/02/21 07:41:05;;;;;;;16.23;10.30;;;7.30;99.90;;;;;;5095313;28;20208;-81
2023/02/21 07:43:32;;;;;;;14.97;9.53;;;7.30;99.90;;;;;;5095691;28;20205;-77
2023/02/21 07:45:59;;;;;;;16.93;10.53;;;7.40;99.90;;;;;;5090813;28;20206;-79
2023/02/21 07:48:26;;;;;;;13.60;9.40;;;7.40;99.90;;;;;;5087417;28;20644;-83
2023/02/21 07:50:53;;;;;;;17.27;9.73;;;7.60;99.90;;;;;;5096214;28;20201;-81
2023/02/21 07:53:20;;;;;;;14.87;10.10;;;7.60;99.90;;;;;;5095812;28;20229;-80
2023/02/21 07:55:48;;;;;;;19.63;11.30;;;7.70;99.90;;;;;;5095963;28;20205;-79
2023/02/21 07:58:15;;;;;;;22.10;14.63;;;7.60;99.90;;;;;;5095148;28;20437;-83
2023/02/21 08:00:42;;;;;;;21.33;12.57;;;7.60;99.90;;;;;;5095488;28;20561;-78
2023/02/21 08:03:12;;;;;;;18.17;11.13;;;7.70;99.90;;;;;;5095440;28;20566;-80
2023/02/21 08:05:39;;;;;;;22.33;10.60;;;7.70;99.90;;;;;;5082477;28;20223;-78
2023/02/21 08:08:07;;;;;;;16.83;10.80;;;7.80;99.90;;;;;;5094917;28;20217;-79
2023/02/21 08:10:34;;;;;;;17.57;10.70;;;7.80;99.90;;;;;;5095515;28;20730;-79
2023/02/21 08:13:03;;;;;;;18.30;10.93;;;7.70;99.90;;;;;;5095263;28;20204;-79
2023/02/21 08:15:29;;;;;;;21.40;11.53;;;7.90;99.90;;;;;;5095511;28;20204;-80
2023/02/21 08:17:57;;;;;;;19.77;11.43;;;7.90;99.90;;;;;;5095496;28;20272;-79
2023/02/21 08:20:24;;;;;;;21.10;11.87;;;8.00;99.90;;;;;;5095727;28;20212;-79
2023/02/21 08:22:51;;;;;;;22.60;12.80;;;8.00;99.90;;;;;;5094498;28;20205;-79
2023/02/21 08:25:18;;;;;;;20.67;11.53;;;7.90;99.90;;;;;;5095400;28;20201;-88
2023/02/21 08:27:47;;;;;;;20.43;11.50;;;7.80;99.90;;;;;;5095529;28;20209;-78
2023/02/21 08:30:19;;;;;;;18.30;10.90;;;7.80;99.90;;;;;;5094787;28;20635;-81
2023/02/21 08:32:47;;;;;;;18.67;10.97;;;7.90;99.90;;;;;;5094704;28;20205;-81
2023/02/21 08:35:14;;;;;;;17.90;11.57;;;7.90;99.90;;;;;;5095068;28;20204;-80
2023/02/21 08:37:45;;;;;;;20.00;11.37;;;7.80;99.90;;;;;;5094198;28;20205;-80
2023/02/21 08:40:12;;;;;;;16.37;11.13;;;7.80;99.90;;;;;;5094815;28;20648;-79
2023/02/21 08:42:40;;;;;;;16.50;10.50;;;7.70;99.90;;;;;;5088472;28;20454;-86
2023/02/21 08:45:09;;;;;;;15.20;10.37;;;7.70;99.90;;;;;;5090926;28;20205;-85
2023/02/21 08:47:37;;;;;;;15.83;10.77;;;7.60;99.90;;;;;;5094708;28;20201;-89
2023/02/21 08:50:05;;;;;;;19.20;11.43;;;7.60;99.90;;;;;;5094994;28;20235;-80
2023/02/21 08:52:32;;;;;;;17.73;11.23;;;7.60;99.90;;;;;;5094600;28;20205;-85
2023/02/21 08:54:58;;;;;;;16.47;10.93;;;7.70;99.90;;;;;;5094717;28;20598;-84
2023/02/21 08:57:25;;;;;;;19.13;11.87;;;7.80;99.90;;;;;;5095148;28;20201;-81
2023/02/21 08:59:52;;;;;;;15.73;10.60;;;7.80;99.90;;;;;;5095105;28;20220;-79
2023/02/21 09:02:21;;;;;;;15.50;10.37;;;7.90;99.90;;;;;;5079885;28;20653;-78
2023/02/21 09:04:50;;;;;;;15.70;10.60;;;7.90;99.90;;;;;;5088998;28;20205;-84
2023/02/21 09:07:19;;;;;;;14.27;10.40;;;7.70;99.90;;;;;;5086839;28;20676;-86
2023/02/21 09:09:47;;;;;;;16.97;10.77;;;7.70;99.90;;;;;;5090645;28;20240;-82
2023/02/21 09:12:14;;;;;;;16.43;10.20;;;7.60;99.90;;;;;;5084434;28;20209;-93
2023/02/21 09:14:42;;;;;;;16.33;10.97;;;7.70;99.90;;;;;;5085539;28;20193;-88
2023/02/21 09:17:11;;;;;;;15.63;11.17;;;7.70;99.90;;;;;;5089848;28;20198;-82
2023/02/21 09:19:38;;;;;;;19.20;11.27;;;7.60;99.90;;;;;;5085110;28;20212;-85
2023/02/21 09:22:09;;;;;;;15.53;11.23;;;7.70;99.90;;;;;;5083399;28;20582;-81
2023/02/21 09:24:36;;;;;;;16.50;13.70;;;7.80;99.90;;;;;;5083477;28;20418;-79
2023/02/21 09:27:04;;;;;;;16.27;11.90;;;7.80;99.90;;;;;;5094403;28;20216;-81
2023/02/21 09:29:32;;;;;;;16.47;11.27;;;7.80;99.90;;;;;;5094037;28;20236;-88
2023/02/21 09:32:02;;;;;;;17.70;11.07;;;7.90;99.90;;;;;;5094037;28;20205;-79
2023/02/21 09:34:29;;;;;;;13.80;9.77;;;7.90;99.90;;;;;;5093518;28;20209;-80
2023/02/21 09:36:59;;;;;;;13.37;9.73;;;7.90;99.90;;;;;;5094041;28;20221;-87
2023/02/21 09:39:27;;;;;;;16.13;10.80;;;7.90;99.90;;;;;;5094154;28;20209;-80
2023/02/21 09:41:56;;;;;;;14.37;9.57;;;7.90;99.90;;;;;;5093959;28;20205;-82
2023/02/21 09:44:27;;;;;;;14.13;9.97;;;7.90;99.90;;;;;;5093589;28;20213;-87
2023/02/21 09:46:57;;;;;;;12.37;9.20;;;7.90;99.90;;;;;;5093922;28;20573;-84
2023/02/21 09:49:28;;;;;;;14.03;9.27;;;7.90;99.90;;;;;;5094170;28;20312;-81
2023/02/21 09:51:56;;;;;;;14.03;9.77;;;8.00;99.90;;;;;;5094284;28;20549;-86
2023/02/21 09:54:30;;;;;;;17.23;13.27;;;7.90;99.90;;;;;;5092692;28;20430;-83
2023/02/21 09:57:01;;;;;;;14.33;10.33;;;8.00;99.90;;;;;;5094205;28;20203;-83
2023/02/21 09:59:34;;;;;;;15.83;10.70;;;8.00;99.90;;;;;;5091953;28;20197;-85
2023/02/21 10:02:17;;;;;;;14.17;9.73;;;8.20;99.90;;;;;;5082459;28;20212;-86
2023/02/21 10:04:57;;;;;;;15.33;10.03;;;8.10;99.90;;;;;;5093657;28;20207;-89
2023/02/21 10:07:35;;;;;;;12.73;9.30;;;8.20;99.90;;;;;;5080327;28;20206;-83
2023/02/21 10:10:08;;;;;;;12.80;9.47;;;8.20;99.90;;;;;;5093628;28;20225;-81
2023/02/21 10:12:40;;;;;;;13.27;10.00;;;8.30;99.90;;;;;;5093796;28;20224;-90
2023/02/21 10:15:21;;;;;;;13.70;9.80;;;8.40;99.90;;;;;;5093679;28;20586;-90
2023/02/21 10:17:57;;;;;;;14.80;10.30;;;8.20;99.90;;;;;;5093664;28;20193;-81
2023/02/21 10:20:29;;;;;;;16.83;11.40;;;8.40;99.90;;;;;;5093386;28;20204;-84
2023/02/21 10:22:57;;;;;;;17.63;14.38;;;8.30;99.90;;;;;;5092736;28;20426;-84
2023/02/21 10:25:29;;;;;;;14.83;11.30;;;8.30;99.90;;;;;;5093652;28;20212;-83
2023/02/21 10:27:58;;;;;;;16.33;10.20;;;8.40;99.90;;;;;;5093348;28;20652;-82
2023/02/21 10:30:30;;;;;;;14.47;9.93;;;8.30;99.90;;;;;;5093259;28;20221;-81
2023/02/21 10:32:57;;;;;;;15.57;9.70;;;8.20;99.90;;;;;;5093550;28;20201;-84
2023/02/21 10:35:24;;;;;;;15.93;9.33;;;8.20;99.90;;;;;;5093316;28;20209;-81
2023/02/21 10:37:53;;;;;;;13.83;9.57;;;8.20;99.90;;;;;;5088575;28;20656;-83
2023/02/21 10:40:30;;;;;;;14.40;9.80;;;8.40;99.90;;;;;;5084163;28;20201;-80
2023/02/21 10:43:03;;;;;;;14.13;9.77;;;8.50;99.90;;;;;;5083452;28;20230;-81
2023/02/21 10:45:36;;;;;;;19.70;12.00;;;8.50;99.90;;;;;;5084859;28;20216;-81
2023/02/21 10:48:04;;;;;;;26.87;13.73;;;8.50;99.90;;;;;;5089051;28;20204;-80
2023/02/21 10:50:50;;;;;;;26.38;15.32;;;8.50;99.90;;;;;;5088572;28;20547;-87
2023/02/21 10:53:27;;;;;;;19.90;11.87;;;8.50;99.90;;;;;;5090061;28;20262;-84
2023/02/21 10:56:18;;;;;;;15.63;10.13;;;8.60;99.90;;;;;;5090363;28;20205;-89
2023/02/21 10:58:46;;;;;;;13.03;9.30;;;8.50;99.90;;;;;;5091512;28;20205;-79
2023/02/21 11:01:15;;;;;;;18.80;10.30;;;8.40;99.90;;;;;;5089636;28;20225;-81
2023/02/21 11:03:46;;;;;;;19.67;11.43;;;8.50;99.90;;;;;;5087043;28;20656;-79
2023/02/21 11:06:27;;;;;;;19.33;11.00;;;8.70;99.90;;;;;;5091895;28;20714;-81
2023/02/21 11:08:54;;;;;;;22.13;11.90;;;8.70;99.90;;;;;;5087141;28;20251;-82
2023/02/21 11:11:37;;;;;;;23.80;13.17;;;8.60;99.90;;;;;;5089833;28;20236;-81
2023/02/21 11:14:21;;;;;;;25.03;11.97;;;8.60;99.90;;;;;;5097226;28;20562;-83
2023/02/21 11:17:15;;;;;;;24.27;12.57;;;8.70;99.90;;;;;;5089988;28;20197;-87
2023/02/21 11:19:45;;;;;;;23.33;12.17;;;8.50;99.90;;;;;;5094525;28;20201;-80
2023/02/21 11:22:13;;;;;;;25.27;12.67;;;8.70;99.90;;;;;;5096406;28;20308;-78
2023/02/21 11:24:59;;;;;;;31.87;13.83;;;8.80;99.90;;;;;;5095781;28;20209;-82
2023/02/21 11:27:30;;;;;;;26.67;13.27;;;8.80;99.90;;;;;;5091077;28;20204;-74
2023/02/21 11:29:57;;;;;;;24.40;13.10;;;8.80;99.90;;;;;;5082542;28;20216;-76
2023/02/21 11:32:30;;;;;;;20.83;11.87;;;8.90;99.90;;;;;;5096526;28;20204;-81
2023/02/21 11:35:08;;;;;;;28.47;13.37;;;9.00;99.90;;;;;;5096048;28;20204;-85
2023/02/21 11:37:49;;;;;;;25.80;13.63;;;9.10;99.90;;;;;;5092108;28;20621;-84
2023/02/21 11:40:31;;;;;;;30.27;13.80;;;9.30;99.90;;;;;;5082938;28;20200;-84
2023/02/21 11:43:24;;;;;;;31.33;14.97;;;9.30;99.90;;;;;;5088209;28;20197;-82
2023/02/21 11:46:16;;;;;;;28.37;13.50;;;9.40;99.90;;;;;;5075346;28;20209;-81
2023/02/21 11:49:00;;;;;;;30.35;18.02;;;9.10;99.90;;;;;;5085626;28;20426;-83
2023/02/21 11:51:38;;;;;;;26.10;13.57;;;9.10;99.90;;;;;;5092235;28;20229;-81
2023/02/21 11:54:06;;;;;;;27.97;13.23;;;9.10;99.90;;;;;;5093061;28;20193;-80
2023/02/21 11:56:42;;;;;;;28.30;13.03;;;8.90;99.90;;;;;;5088125;28;20201;-83
2023/02/21 11:59:23;;;;;;;30.60;13.03;;;9.00;99.90;;;;;;5092630;28;20201;-83
2023/02/21 12:02:03;;;;;;;26.60;13.37;;;8.90;99.90;;;;;;5094084;28;20193;-82
2023/02/21 12:04:45;;;;;;;24.23;12.97;;;9.10;99.90;;;;;;5084404;28;20625;-81
2023/02/21 12:07:17;;;;;;;31.50;14.20;;;9.20;99.90;;;;;;5088169;28;20200;-84
2023/02/21 12:09:52;;;;;;;24.30;12.60;;;8.90;99.90;;;;;;5075727;28;20206;-88
2023/02/21 12:12:33;;;;;;;26.40;12.60;;;8.90;99.90;;;;;;5091047;28;20660;-91
2023/02/21 12:15:14;;;;;;;22.00;10.93;;;8.80;99.90;;;;;;5088208;28;20209;-90
2023/02/21 12:18:03;;;;;;;21.70;11.30;;;8.80;99.90;;;;;;5076149;28;20213;-92
2023/02/21 12:20:50;;;;;;;24.20;11.07;;;8.80;99.90;;;;;;5089560;28;20277;-89
2023/02/21 12:23:23;;;;;;;21.00;10.40;;;8.90;99.90;;;;;;5090142;28;20209;-89
2023/02/21 12:26:16;;;;;;;22.07;10.57;;;9.00;99.90;;;;;;5084660;28;20205;-91
2023/02/21 12:29:01;;;;;;;19.73;9.53;;;9.20;99.90;;;;;;5092047;28;20223;-89
2023/02/21 12:32:06;;;;;;;16.30;9.50;;;9.30;99.90;;;;;;5091073;28;20225;-87
2023/02/21 12:34:44;;;;;;;15.30;9.35;;;9.30;99.90;;;;;;5090135;28;20474;-89
2023/02/21 12:37:22;;;;;;;15.23;8.63;;;9.40;99.90;;;;;;5085154;28;20216;-86
2023/02/21 12:39:58;;;;;;;18.57;9.33;;;9.30;99.90;;;;;;5097331;28;20205;-90
2023/02/21 12:42:42;;;;;;;16.30;9.67;;;9.20;99.90;;;;;;5092596;28;20209;-89
2023/02/21 12:45:28;;;;;;;23.33;12.43;;;9.20;99.90;;;;;;5089789;28;20549;-91
2023/02/21 12:48:05;;;;;;;28.73;13.83;;;9.50;99.90;;;;;;5085939;28;20214;-89
2023/02/21 12:50:41;;;;;;;29.67;14.73;;;9.40;99.90;;;;;;5082763;28;20224;-89
2023/02/21 12:53:15;;;;;;;32.83;16.17;;;9.60;99.90;;;;;;5085440;28;20632;-82
2023/02/21 12:55:46;;;;;;;35.53;18.20;;;9.60;99.90;;;;;;5094153;28;20438;-84
2023/02/21 12:58:20;;;;;;;28.30;15.47;;;9.60;99.90;;;;;;5088626;28;20201;-82
2023/02/21 13:00:53;;;;;;;26.70;14.40;;;9.70;99.90;;;;;;5088792;28;20193;-80
2023/02/21 13:03:33;;;;;;;25.30;14.67;;;9.60;99.90;;;;;;5091104;28;20208;-81
2023/02/21 13:06:06;;;;;;;28.87;14.83;;;9.60;99.90;;;;;;5093602;28;21459;-82
2023/02/21 13:08:46;;;;;;;27.23;14.10;;;9.60;99.90;;;;;;5093032;28;20255;-85
2023/02/21 13:11:19;;;;;;;30.37;14.20;;;9.30;99.90;;;;;;5094439;28;20220;-82
2023/02/21 13:13:47;;;;;;;32.57;16.00;;;9.20;99.90;;;;;;5094864;28;20213;-82
2023/02/21 13:16:17;;;;;;;30.27;15.40;;;9.40;99.90;;;;;;5089805;28;20593;-80
2023/02/21 13:18:48;;;;;;;37.50;21.37;;;9.40;99.90;;;;;;5085785;28;20426;-83
2023/02/21 13:21:30;;;;;;;28.30;16.27;;;9.60;99.90;;;;;;5080466;28;20547;-81
2023/02/21 13:24:43;;;;;;;32.17;16.63;;;9.60;99.90;;;;;;5095360;28;20214;-90
2023/02/21 13:27:44;;;;;;;29.80;16.03;;;9.80;99.90;;;;;;5095485;28;20213;-85
2023/02/21 13:30:17;;;;;;;27.90;14.50;;;10.00;99.90;;;;;;5086244;28;20198;-87
2023/02/21 13:32:52;;;;;;;29.67;15.70;;;10.10;99.90;;;;;;5086550;28;20195;-84
2023/02/21 13:35:32;;;;;;;27.37;14.77;;;10.10;99.90;;;;;;5091417;28;20617;-84
2023/02/21 13:38:02;;;;;;;25.57;14.50;;;9.90;99.90;;;;;;5087907;28;20292;-85
2023/02/21 13:40:37;;;;;;;25.33;14.10;;;9.80;99.90;;;;;;5094775;28;20971;-83
2023/02/21 13:43:13;;;;;;;24.90;13.53;;;9.60;99.90;;;;;;5086388;28;20396;-87
2023/02/21 13:45:40;;;;;;;20.60;13.60;;;9.40;99.90;;;;;;5094666;28;20209;-85
2023/02/21 13:48:22;;;;;;;20.87;13.30;;;9.50;99.90;;;;;;5081304;28;20281;-85
2023/02/21 13:50:50;;;;;;;20.67;11.93;;;9.60;99.90;;;;;;5073987;28;20230;-84
2023/02/21 13:53:21;;;;;;;18.00;11.50;;;9.70;99.90;;;;;;5074509;28;20200;-84
2023/02/21 13:56:17;;;;;;;19.30;12.43;;;9.80;99.90;;;;;;5080120;28;20186;-87
2023/02/21 13:58:47;;;;;;;21.40;13.00;;;9.90;99.90;;;;;;5093607;28;20626;-85
2023/02/21 14:01:40;;;;;;;20.07;11.80;;;9.90;99.90;;;;;;5093840;28;20201;-86
2023/02/21 14:04:41;;;;;;;23.25;15.05;;;10.00;99.90;;;;;;5086634;28;20431;-84
2023/02/21 14:07:08;;;;;;;24.57;13.67;;;10.30;99.90;;;;;;5091968;28;20315;-83
2023/02/21 14:09:40;;;;;;;24.87;12.93;;;10.50;99.90;;;;;;5081965;28;20203;-83
2023/02/21 14:12:07;;;;;;;21.13;13.27;;;10.70;99.90;;;;;;5087088;28;20230;-83
2023/02/21 14:14:38;;;;;;;20.57;12.90;;;10.40;99.90;;;;;;5086515;28;20201;-83
2023/02/21 14:17:08;;;;;;;21.20;13.53;;;10.20;99.90;;;;;;5094013;28;20202;-84
2023/02/21 14:19:41;;;;;;;22.43;14.00;;;10.40;99.90;;;;;;5093296;28;20234;-84
2023/02/21 14:22:14;;;;;;;25.33;14.57;;;10.30;99.90;;;;;;5084520;28;20676;-85
2023/02/21 14:24:44;;;;;;;25.47;14.73;;;10.00;99.90;;;;;;5076345;28;20584;-83
2023/02/21 14:27:31;;;;;;;25.73;14.40;;;10.00;99.90;;;;;;5082917;28;20656;-84
2023/02/21 14:30:33;;;;;;;24.67;14.47;;;9.90;99.90;;;;;;5079803;28;20204;-83
2023/02/21 14:33:11;;;;;;;35.27;15.53;;;9.70;99.90;;;;;;5031348;28;20199;-82
2023/02/21 14:35:46;;;;;;;28.80;15.17;;;9.70;99.90;;;;;;5017958;28;20214;-84
2023/02/21 14:38:20;;;;;;;24.23;14.90;;;9.80;99.90;;;;;;5055473;28;20214;-83
2023/02/21 14:41:01;;;;;;;26.73;15.37;;;9.90;99.90;;;;;;5079860;28;20206;-83
2023/02/21 14:43:51;;;;;;;22.17;13.30;;;10.00;99.90;;;;;;5079756;28;20217;-86
2023/02/21 14:46:48;;;;;;;27.80;13.97;;;10.10;99.90;;;;;;5093298;28;20205;-84
2023/02/21 14:50:10;;;;;;;22.67;13.50;;;10.00;99.90;;;;;;5073305;28;20198;-87
2023/02/21 14:52:49;;;;;;;26.17;14.80;;;10.20;99.90;;;;;;5081650;28;20226;-85
2023/02/21 14:55:47;;;;;;;26.00;14.77;;;10.00;99.90;;;;;;5088263;28;20199;-84
2023/02/21 14:58:33;;;;;;;24.73;13.40;;;10.00;99.90;;;;;;5087075;28;20202;-86
2023/02/21 15:01:08;;;;;;;22.33;13.70;;;10.20;99.90;;;;;;5073337;28;20202;-83
2023/02/21 15:03:44;;;;;;;26.10;14.93;;;10.40;99.90;;;;;;5092852;28;20205;-85
2023/02/21 15:06:17;;;;;;;23.27;14.83;;;10.10;99.90;;;;;;5079598;28;20698;-84
2023/02/21 15:08:45;;;;;;;27.63;16.23;;;10.00;99.90;;;;;;5093151;28;20198;-83
2023/02/21 15:11:22;;;;;;;24.47;14.27;;;9.80;99.90;;;;;;5092885;28;20692;-84
2023/02/21 15:14:21;;;;;;;22.63;13.53;;;9.80;99.90;;;;;;5082157;28;20210;-86
2023/02/21 15:16:49;;;;;;;21.83;12.97;;;9.90;99.90;;;;;;5073305;28;20294;-86
2023/02/21 15:19:25;;;;;;;25.70;14.57;;;10.00;99.90;;;;;;5089068;28;20190;-86
2023/02/21 15:22:16;;;;;;;21.00;13.17;;;10.10;99.90;;;;;;5082345;28;20211;-85